sensor_id;sensor_type;location;lat;lon;timestamp;temperature;humidity
8595;DHT22;4335;48.860;9.198;2023-02-03T00:01:42;6.50;99.90
8595;DHT22;4335;48.860;9.198;2023-02-03T00:04:09;6.50;99.90
8595;DHT22;4335;48.860;9.198;2023-02-03T00:06:36;6.50;99.90
8595;DHT22;4335;48.860;9.198;2023-02-03T00:09:06;6.50;99.90
8595;DHT22;4335;48.860;9.198;2023-02-03T00:11:34;6.50;99.90
8595;DHT22;4335;48.860;9.198;2023-02-03T00:14:00;6.40;99.90
8595;DHT22;4335;48.860;9.198;2023-02-03T00:16:27;6.40;99.90
8595;DHT22;4335;48.860;9.198;2023-02-03T00:18:54;6.40;99.90
8595;DHT22;4335;48.860;9.198;2023-02-03T00:21:21;6.40;99.90
8595;DHT22;4335;48.860;9.198;2023-02-03T00:23:47;6.50;99.90
8595;DHT22;4335;48.860;9.198;2023-02-03T00:26:15;6.50;99.90
8595;DHT22;4335;48.860;9.198;2023-02-03T00:28:43;6.50;99.90
8595;DHT22;4335;48.860;9.198;2023-02-03T00:31:14;6.50;99.90
8595;DHT22;4335;48.860;9.198;2023-02-03T00:33:45;6.50;99.90
8595;DHT22;4335;48.860;9.198;2023-02-03T00:36:14;6.50;99.90
8595;DHT22;4335;48.860;9.198;2023-02-03T00:38:41;6.50;99.90
8595;DHT22;4335;48.860;9.198;2023-02-03T00:41:08;6.50;99.90
8595;DHT22;4335;48.860;9.198;2023-02-03T00:43:35;6.50;99.90
8595;DHT22;4335;48.860;9.198;2023-02-03T00:46:02;6.60;99.90
8595;DHT22;4335;48.860;9.198;2023-02-03T00:48:29;6.50;99.90
8595;DHT22;4335;48.860;9.198;2023-02-03T00:50:55;6.50;99.90
8595;DHT22;4335;48.860;9.198;2023-02-03T00:53:22;6.50;99.90
8595;DHT22;4335;48.860;9.198;2023-02-03T00:55:48;6.50;99.90
8595;DHT22;4335;48.860;9.198;2023-02-03T00:58:18;6.50;99.90
8595;DHT22;4335;48.860;9.198;2023-02-03T01:00:48;6.50;99.90
8595;DHT22;4335;48.860;9.198;2023-02-03T01:03:16;6.50;99.90
8595;DHT22;4335;48.860;9.198;2023-02-03T01:05:42;6.60;99.90
8595;DHT22;4335;48.860;9.198;2023-02-03T01:08:12;6.60;99.90
8595;DHT22;4335;48.860;9.198;2023-02-03T01:10:39;6.60;99.90
8595;DHT22;4335;48.860;9.198;2023-02-03T01:13:06;6.60;99.90
8595;DHT22;4335;48.860;9.198;2023-02-03T01:15:35;6.60;99.90
8595;DHT22;4335;48.860;9.198;2023-02-03T01:18:13;6.50;99.90
8595;DHT22;4335;48.860;9.198;2023-02-03T01:20:40;6.60;99.90
8595;DHT22;4335;48.860;9.198;2023-02-03T01:23:10;6.60;99.90
8595;DHT22;4335;48.860;9.198;2023-02-03T01:25:36;6.60;99.90
8595;DHT22;4335;48.860;9.198;2023-02-03T01:28:03;6.60;99.90
8595;DHT22;4335;48.860;9.198;2023-02-03T01:30:31;6.60;99.90
8595;DHT22;4335;48.860;9.198;2023-02-03T01:33:00;6.60;99.90
8595;DHT22;4335;48.860;9.198;2023-02-03T01:35:27;6.60;99.90
8595;DHT22;4335;48.860;9.198;2023-02-03T01:37:57;6.50;99.90
8595;DHT22;4335;48.860;9.198;2023-02-03T01:40:24;6.60;99.90
8595;DHT22;4335;48.860;9.198;2023-02-03T01:42:51;6.50;99.90
8595;DHT22;4335;48.860;9.198;2023-02-03T01:45:20;6.60;99.90
8595;DHT22;4335;48.860;9.198;2023-02-03T01:47:51;6.60;99.90
8595;DHT22;4335;48.860;9.198;2023-02-03T01:50:29;6.60;99.90
8595;DHT22;4335;48.860;9.198;2023-02-03T01:52:58;6.60;99.90
8595;DHT22;4335;48.860;9.198;2023-02-03T01:55:29;6.50;99.90
8595;DHT22;4335;48.860;9.198;2023-02-03T01:58:02;6.60;99.90
8595;DHT22;4335;48.860;9.198;2023-02-03T02:00:31;6.60;99.90
8595;DHT22;4335;48.860;9.198;2023-02-03T02:02:59;6.60;99.90
8595;DHT22;4335;48.860;9.198;2023-02-03T02:05:30;6.60;99.90
8595;DHT22;4335;48.860;9.198;2023-02-03T02:08:01;6.70;99.90
8595;DHT22;4335;48.860;9.198;2023-02-03T02:10:32;6.70;99.90
8595;DHT22;4335;48.860;9.198;2023-02-03T02:13:01;6.70;99.90
8595;DHT22;4335;48.860;9.198;2023-02-03T02:15:36;6.80;99.90
8595;DHT22;4335;48.860;9.198;2023-02-03T02:18:31;6.70;99.90
8595;DHT22;4335;48.860;9.198;2023-02-03T02:21:29;6.70;99.90
8595;DHT22;4335;48.860;9.198;2023-02-03T02:24:24;6.70;99.90
8595;DHT22;4335;48.860;9.198;2023-02-03T02:27:01;6.70;99.90
8595;DHT22;4335;48.860;9.198;2023-02-03T02:30:04;6.70;99.90
8595;DHT22;4335;48.860;9.198;2023-02-03T02:32:51;6.70;99.90
8595;DHT22;4335;48.860;9.198;2023-02-03T02:35:37;6.70;99.90
8595;DHT22;4335;48.860;9.198;2023-02-03T02:38:14;6.60;99.90
8595;DHT22;4335;48.860;9.198;2023-02-03T02:40:50;6.60;99.90
8595;DHT22;4335;48.860;9.198;2023-02-03T02:43:21;6.60;99.90
8595;DHT22;4335;48.860;9.198;2023-02-03T02:45:55;6.60;99.90
8595;DHT22;4335;48.860;9.198;2023-02-03T02:48:27;6.60;99.90
8595;DHT22;4335;48.860;9.198;2023-02-03T02:50:57;6.60;99.90
8595;DHT22;4335;48.860;9.198;2023-02-03T02:53:28;6.60;99.90
8595;DHT22;4335;48.860;9.198;2023-02-03T02:56:04;6.60;99.90
8595;DHT22;4335;48.860;9.198;2023-02-03T02:58:35;6.60;99.90
8595;DHT22;4335;48.860;9.198;2023-02-03T03:01:04;6.60;99.90
8595;DHT22;4335;48.860;9.198;2023-02-03T03:03:33;6.60;99.90
8595;DHT22;4335;48.860;9.198;2023-02-03T03:06:02;6.60;99.90
8595;DHT22;4335;48.860;9.198;2023-02-03T03:08:41;6.60;99.90
8595;DHT22;4335;48.860;9.198;2023-02-03T03:11:16;6.70;99.90
8595;DHT22;4335;48.860;9.198;2023-02-03T03:13:47;6.70;99.90
8595;DHT22;4335;48.860;9.198;2023-02-03T03:16:22;6.70;99.90
8595;DHT22;4335;48.860;9.198;2023-02-03T03:18:53;6.70;99.90
8595;DHT22;4335;48.860;9.198;2023-02-03T03:21:28;6.70;99.90
8595;DHT22;4335;48.860;9.198;2023-02-03T03:23:58;6.70;99.90
8595;DHT22;4335;48.860;9.198;2023-02-03T03:26:29;6.70;99.90
8595;DHT22;4335;48.860;9.198;2023-02-03T03:29:05;6.70;99.90
8595;DHT22;4335;48.860;9.198;2023-02-03T03:31:35;6.70;99.90
8595;DHT22;4335;48.860;9.198;2023-02-03T03:34:03;6.80;99.90
8595;DHT22;4335;48.860;9.198;2023-02-03T03:36:40;6.80;99.90
8595;DHT22;4335;48.860;9.198;2023-02-03T03:39:16;6.80;99.90
8595;DHT22;4335;48.860;9.198;2023-02-03T03:41:52;6.80;99.90
8595;DHT22;4335;48.860;9.198;2023-02-03T03:44:29;6.70;99.90
8595;DHT22;4335;48.860;9.198;2023-02-03T03:47:08;6.70;99.90
8595;DHT22;4335;48.860;9.198;2023-02-03T03:49:38;6.80;99.90
8595;DHT22;4335;48.860;9.198;2023-02-03T03:52:08;6.70;99.90
8595;DHT22;4335;48.860;9.198;2023-02-03T03:54:37;6.70;99.90
8595;DHT22;4335;48.860;9.198;2023-02-03T03:57:08;6.70;99.90
8595;DHT22;4335;48.860;9.198;2023-02-03T03:59:42;6.70;99.90
8595;DHT22;4335;48.860;9.198;2023-02-03T04:02:11;6.70;99.90
8595;DHT22;4335;48.860;9.198;2023-02-03T04:04:40;6.70;99.90
8595;DHT22;4335;48.860;9.198;2023-02-03T04:07:08;6.70;99.90
8595;DHT22;4335;48.860;9.198;2023-02-03T04:09:35;6.70;99.90
8595;DHT22;4335;48.860;9.198;2023-02-03T04:12:08;6.70;99.90
8595;DHT22;4335;48.860;9.198;2023-02-03T04:14:38;6.80;99.90
8595;DHT22;4335;48.860;9.198;2023-02-03T04:17:05;6.80;99.90
8595;DHT22;4335;48.860;9.198;2023-02-03T04:19:32;6.80;99.90
8595;DHT22;4335;48.860;9.198;2023-02-03T04:22:02;6.70;99.90
8595;DHT22;4335;48.860;9.198;2023-02-03T04:24:29;6.80;99.90
8595;DHT22;4335;48.860;9.198;2023-02-03T04:26:56;6.70;99.90
8595;DHT22;4335;48.860;9.198;2023-02-03T04:29:23;6.80;99.90
8595;DHT22;4335;48.860;9.198;2023-02-03T04:31:49;6.80;99.90
8595;DHT22;4335;48.860;9.198;2023-02-03T04:34:16;6.70;99.90
8595;DHT22;4335;48.860;9.198;2023-02-03T04:36:43;6.80;99.90
8595;DHT22;4335;48.860;9.198;2023-02-03T04:39:13;6.80;99.90
8595;DHT22;4335;48.860;9.198;2023-02-03T04:41:42;6.80;99.90
8595;DHT22;4335;48.860;9.198;2023-02-03T04:44:09;6.70;99.90
8595;DHT22;4335;48.860;9.198;2023-02-03T04:46:36;6.70;99.90
8595;DHT22;4335;48.860;9.198;2023-02-03T04:49:03;6.60;99.90
8595;DHT22;4335;48.860;9.198;2023-02-03T04:51:29;6.60;99.90
8595;DHT22;4335;48.860;9.198;2023-02-03T04:53:56;6.50;99.90
8595;DHT22;4335;48.860;9.198;2023-02-03T04:56:23;6.60;99.90
8595;DHT22;4335;48.860;9.198;2023-02-03T04:58:50;6.60;99.90
8595;DHT22;4335;48.860;9.198;2023-02-03T05:01:17;6.60;99.90
8595;DHT22;4335;48.860;9.198;2023-02-03T05:03:46;6.50;99.90
8595;DHT22;4335;48.860;9.198;2023-02-03T05:06:13;6.50;99.90
8595;DHT22;4335;48.860;9.198;2023-02-03T05:08:39;6.60;99.90
8595;DHT22;4335;48.860;9.198;2023-02-03T05:11:06;6.60;99.90
8595;DHT22;4335;48.860;9.198;2023-02-03T05:13:33;6.50;99.90
8595;DHT22;4335;48.860;9.198;2023-02-03T05:16:04;6.50;99.90
8595;DHT22;4335;48.860;9.198;2023-02-03T05:18:31;6.50;99.90
8595;DHT22;4335;48.860;9.198;2023-02-03T05:20:58;6.50;99.90
8595;DHT22;4335;48.860;9.198;2023-02-03T05:23:25;6.50;99.90
8595;DHT22;4335;48.860;9.198;2023-02-03T05:25:54;6.50;99.90
8595;DHT22;4335;48.860;9.198;2023-02-03T05:28:21;6.40;99.90
8595;DHT22;4335;48.860;9.198;2023-02-03T05:30:48;6.50;99.90
8595;DHT22;4335;48.860;9.198;2023-02-03T05:33:15;6.50;99.90
8595;DHT22;4335;48.860;9.198;2023-02-03T05:35:42;6.40;99.90
8595;DHT22;4335;48.860;9.198;2023-02-03T05:38:12;6.40;99.90
8595;DHT22;4335;48.860;9.198;2023-02-03T05:40:38;6.40;99.90
8595;DHT22;4335;48.860;9.198;2023-02-03T05:43:23;6.40;99.90
8595;DHT22;4335;48.860;9.198;2023-02-03T05:45:50;6.40;99.90
8595;DHT22;4335;48.860;9.198;2023-02-03T05:48:17;6.50;99.90
8595;DHT22;4335;48.860;9.198;2023-02-03T05:50:46;6.40;99.90
8595;DHT22;4335;48.860;9.198;2023-02-03T05:53:13;6.50;99.90
8595;DHT22;4335;48.860;9.198;2023-02-03T05:55:40;6.50;99.90
8595;DHT22;4335;48.860;9.198;2023-02-03T05:58:13;6.40;99.90
8595;DHT22;4335;48.860;9.198;2023-02-03T06:00:43;6.50;99.90
8595;DHT22;4335;48.860;9.198;2023-02-03T06:03:10;6.50;99.90
8595;DHT22;4335;48.860;9.198;2023-02-03T06:05:37;6.50;99.90
8595;DHT22;4335;48.860;9.198;2023-02-03T06:08:07;6.40;99.90
8595;DHT22;4335;48.860;9.198;2023-02-03T06:10:34;6.40;99.90
8595;DHT22;4335;48.860;9.198;2023-02-03T06:13:07;6.40;99.90
8595;DHT22;4335;48.860;9.198;2023-02-03T06:15:34;6.50;99.90
8595;DHT22;4335;48.860;9.198;2023-02-03T06:18:00;6.50;99.90
8595;DHT22;4335;48.860;9.198;2023-02-03T06:20:30;6.50;99.90
8595;DHT22;4335;48.860;9.198;2023-02-03T06:23:00;6.50;99.90
8595;DHT22;4335;48.860;9.198;2023-02-03T06:25:27;6.40;99.90
8595;DHT22;4335;48.860;9.198;2023-02-03T06:27:53;6.40;99.90
8595;DHT22;4335;48.860;9.198;2023-02-03T06:30:23;6.40;99.90
8595;DHT22;4335;48.860;9.198;2023-02-03T06:32:50;6.40;99.90
8595;DHT22;4335;48.860;9.198;2023-02-03T06:35:17;6.40;99.90
8595;DHT22;4335;48.860;9.198;2023-02-03T06:37:44;6.40;99.90
8595;DHT22;4335;48.860;9.198;2023-02-03T06:40:12;6.40;99.90
8595;DHT22;4335;48.860;9.198;2023-02-03T06:42:47;6.40;99.90
8595;DHT22;4335;48.860;9.198;2023-02-03T06:45:14;6.40;99.90
8595;DHT22;4335;48.860;9.198;2023-02-03T06:47:44;6.40;99.90
8595;DHT22;4335;48.860;9.198;2023-02-03T06:50:14;6.50;99.90
8595;DHT22;4335;48.860;9.198;2023-02-03T06:52:41;6.50;99.90
8595;DHT22;4335;48.860;9.198;2023-02-03T06:55:11;6.50;99.90
8595;DHT22;4335;48.860;9.198;2023-02-03T06:57:44;6.50;99.90
8595;DHT22;4335;48.860;9.198;2023-02-03T07:00:13;6.60;99.90
8595;DHT22;4335;48.860;9.198;2023-02-03T07:02:40;6.50;99.90
8595;DHT22;4335;48.860;9.198;2023-02-03T07:05:10;6.50;99.90
8595;DHT22;4335;48.860;9.198;2023-02-03T07:07:36;6.60;99.90
8595;DHT22;4335;48.860;9.198;2023-02-03T07:10:05;6.60;99.90
8595;DHT22;4335;48.860;9.198;2023-02-03T07:12:35;6.50;99.90
8595;DHT22;4335;48.860;9.198;2023-02-03T07:15:04;6.50;99.90
8595;DHT22;4335;48.860;9.198;2023-02-03T07:17:37;6.50;99.90
8595;DHT22;4335;48.860;9.198;2023-02-03T07:20:11;6.60;99.90
8595;DHT22;4335;48.860;9.198;2023-02-03T07:22:41;6.50;99.90
8595;DHT22;4335;48.860;9.198;2023-02-03T07:25:12;6.50;99.90
8595;DHT22;4335;48.860;9.198;2023-02-03T07:27:39;6.70;99.90
8595;DHT22;4335;48.860;9.198;2023-02-03T07:30:07;6.60;99.90
8595;DHT22;4335;48.860;9.198;2023-02-03T07:32:37;6.60;99.90
8595;DHT22;4335;48.860;9.198;2023-02-03T07:35:13;6.60;99.90
8595;DHT22;4335;48.860;9.198;2023-02-03T07:37:40;6.60;99.90
8595;DHT22;4335;48.860;9.198;2023-02-03T07:40:07;6.60;99.90
8595;DHT22;4335;48.860;9.198;2023-02-03T07:42:40;6.70;99.90
8595;DHT22;4335;48.860;9.198;2023-02-03T07:45:10;6.70;99.90
8595;DHT22;4335;48.860;9.198;2023-02-03T07:47:37;6.70;99.90
8595;DHT22;4335;48.860;9.198;2023-02-03T07:50:04;6.70;99.90
8595;DHT22;4335;48.860;9.198;2023-02-03T07:52:31;6.70;99.90
8595;DHT22;4335;48.860;9.198;2023-02-03T07:54:58;6.70;99.90
8595;DHT22;4335;48.860;9.198;2023-02-03T07:57:24;6.70;99.90
8595;DHT22;4335;48.860;9.198;2023-02-03T07:59:52;6.70;99.90
8595;DHT22;4335;48.860;9.198;2023-02-03T08:02:22;6.80;99.90
8595;DHT22;4335;48.860;9.198;2023-02-03T08:04:48;6.70;99.90
8595;DHT22;4335;48.860;9.198;2023-02-03T08:07:15;6.70;99.90
8595;DHT22;4335;48.860;9.198;2023-02-03T08:09:45;6.70;99.90
8595;DHT22;4335;48.860;9.198;2023-02-03T08:12:11;6.70;99.90
8595;DHT22;4335;48.860;9.198;2023-02-03T08:14:47;6.80;99.90
8595;DHT22;4335;48.860;9.198;2023-02-03T08:17:15;6.80;99.90
8595;DHT22;4335;48.860;9.198;2023-02-03T08:19:51;6.80;99.90
8595;DHT22;4335;48.860;9.198;2023-02-03T08:22:17;6.90;99.90
8595;DHT22;4335;48.860;9.198;2023-02-03T08:24:45;6.90;99.90
8595;DHT22;4335;48.860;9.198;2023-02-03T08:27:12;6.90;99.90
8595;DHT22;4335;48.860;9.198;2023-02-03T08:29:39;6.90;99.90
8595;DHT22;4335;48.860;9.198;2023-02-03T08:32:08;7.10;99.90
8595;DHT22;4335;48.860;9.198;2023-02-03T08:34:40;7.00;99.90
8595;DHT22;4335;48.860;9.198;2023-02-03T08:37:11;6.90;99.90
8595;DHT22;4335;48.860;9.198;2023-02-03T08:39:41;6.90;99.90
8595;DHT22;4335;48.860;9.198;2023-02-03T08:42:08;7.00;99.90
8595;DHT22;4335;48.860;9.198;2023-02-03T08:44:35;7.00;99.90
8595;DHT22;4335;48.860;9.198;2023-02-03T08:47:04;7.00;99.90
8595;DHT22;4335;48.860;9.198;2023-02-03T08:49:32;7.00;99.90
8595;DHT22;4335;48.860;9.198;2023-02-03T08:52:01;7.10;99.90
8595;DHT22;4335;48.860;9.198;2023-02-03T08:54:27;7.10;99.90
8595;DHT22;4335;48.860;9.198;2023-02-03T08:56:54;7.30;99.90
8595;DHT22;4335;48.860;9.198;2023-02-03T08:59:24;7.10;99.90
8595;DHT22;4335;48.860;9.198;2023-02-03T09:01:51;7.20;99.90
8595;DHT22;4335;48.860;9.198;2023-02-03T09:04:18;7.30;99.90
8595;DHT22;4335;48.860;9.198;2023-02-03T09:06:49;7.40;99.90
8595;DHT22;4335;48.860;9.198;2023-02-03T09:09:17;7.50;99.90
8595;DHT22;4335;48.860;9.198;2023-02-03T09:11:43;7.70;99.90
8595;DHT22;4335;48.860;9.198;2023-02-03T09:14:10;7.80;99.90
8595;DHT22;4335;48.860;9.198;2023-02-03T09:16:36;7.80;99.90
8595;DHT22;4335;48.860;9.198;2023-02-03T09:19:06;8.00;99.90
8595;DHT22;4335;48.860;9.198;2023-02-03T09:21:33;8.10;99.90
8595;DHT22;4335;48.860;9.198;2023-02-03T09:24:03;8.00;99.90
8595;DHT22;4335;48.860;9.198;2023-02-03T09:26:33;8.20;99.90
8595;DHT22;4335;48.860;9.198;2023-02-03T09:29:03;8.20;99.90
8595;DHT22;4335;48.860;9.198;2023-02-03T09:31:30;8.30;99.90
8595;DHT22;4335;48.860;9.198;2023-02-03T09:33:58;8.40;99.90
8595;DHT22;4335;48.860;9.198;2023-02-03T09:36:24;8.40;99.90
8595;DHT22;4335;48.860;9.198;2023-02-03T09:38:51;8.50;99.90
8595;DHT22;4335;48.860;9.198;2023-02-03T09:41:30;8.60;99.90
8595;DHT22;4335;48.860;9.198;2023-02-03T09:44:08;8.60;99.90
8595;DHT22;4335;48.860;9.198;2023-02-03T09:46:39;8.60;99.90
8595;DHT22;4335;48.860;9.198;2023-02-03T09:49:14;8.50;99.90
8595;DHT22;4335;48.860;9.198;2023-02-03T09:51:49;8.40;99.90
8595;DHT22;4335;48.860;9.198;2023-02-03T09:54:20;8.40;99.90
8595;DHT22;4335;48.860;9.198;2023-02-03T09:56:49;8.30;99.90
8595;DHT22;4335;48.860;9.198;2023-02-03T09:59:18;8.30;99.90
8595;DHT22;4335;48.860;9.198;2023-02-03T10:01:54;8.50;99.90
8595;DHT22;4335;48.860;9.198;2023-02-03T10:04:29;8.50;99.90
8595;DHT22;4335;48.860;9.198;2023-02-03T10:07:02;8.50;99.90
8595;DHT22;4335;48.860;9.198;2023-02-03T10:09:42;8.60;99.90
8595;DHT22;4335;48.860;9.198;2023-02-03T10:12:29;8.50;99.90
8595;DHT22;4335;48.860;9.198;2023-02-03T10:18:13;8.50;99.90
8595;DHT22;4335;48.860;9.198;2023-02-03T10:20:43;8.60;99.90
8595;DHT22;4335;48.860;9.198;2023-02-03T10:23:13;8.50;99.90
8595;DHT22;4335;48.860;9.198;2023-02-03T10:25:48;8.60;99.90
8595;DHT22;4335;48.860;9.198;2023-02-03T10:28:18;8.50;99.90
8595;DHT22;4335;48.860;9.198;2023-02-03T10:30:49;8.50;99.90
8595;DHT22;4335;48.860;9.198;2023-02-03T10:33:20;8.50;99.90
8595;DHT22;4335;48.860;9.198;2023-02-03T10:35:50;8.40;99.90
8595;DHT22;4335;48.860;9.198;2023-02-03T10:38:30;8.40;99.90
8595;DHT22;4335;48.860;9.198;2023-02-03T10:40:59;8.50;99.90
8595;DHT22;4335;48.860;9.198;2023-02-03T10:43:27;8.50;99.90
8595;DHT22;4335;48.860;9.198;2023-02-03T10:46:13;8.70;99.90
8595;DHT22;4335;48.860;9.198;2023-02-03T10:48:41;8.70;99.90
8595;DHT22;4335;48.860;9.198;2023-02-03T10:51:14;8.80;99.90
8595;DHT22;4335;48.860;9.198;2023-02-03T10:53:49;9.00;99.90
8595;DHT22;4335;48.860;9.198;2023-02-03T10:56:22;9.00;99.90
8595;DHT22;4335;48.860;9.198;2023-02-03T10:58:52;9.00;99.90
8595;DHT22;4335;48.860;9.198;2023-02-03T11:01:24;8.90;99.90
8595;DHT22;4335;48.860;9.198;2023-02-03T11:04:00;8.90;99.90
8595;DHT22;4335;48.860;9.198;2023-02-03T11:06:28;9.10;99.90
8595;DHT22;4335;48.860;9.198;2023-02-03T11:08:55;9.00;99.90
8595;DHT22;4335;48.860;9.198;2023-02-03T11:11:26;9.00;99.90
8595;DHT22;4335;48.860;9.198;2023-02-03T11:13:55;8.90;99.90
8595;DHT22;4335;48.860;9.198;2023-02-03T11:16:24;8.80;99.90
8595;DHT22;4335;48.860;9.198;2023-02-03T11:18:58;8.80;99.90
8595;DHT22;4335;48.860;9.198;2023-02-03T11:21:28;8.80;99.90
8595;DHT22;4335;48.860;9.198;2023-02-03T11:24:12;8.80;99.90
8595;DHT22;4335;48.860;9.198;2023-02-03T11:26:44;8.90;99.90
8595;DHT22;4335;48.860;9.198;2023-02-03T11:29:16;8.80;99.90
8595;DHT22;4335;48.860;9.198;2023-02-03T11:31:47;8.80;99.90
8595;DHT22;4335;48.860;9.198;2023-02-03T11:34:20;8.80;99.90
8595;DHT22;4335;48.860;9.198;2023-02-03T11:36:51;8.90;99.90
8595;DHT22;4335;48.860;9.198;2023-02-03T11:39:22;8.80;99.90
8595;DHT22;4335;48.860;9.198;2023-02-03T11:41:56;8.80;99.90
8595;DHT22;4335;48.860;9.198;2023-02-03T11:44:27;8.70;99.90
8595;DHT22;4335;48.860;9.198;2023-02-03T11:46:58;8.70;99.90
8595;DHT22;4335;48.860;9.198;2023-02-03T11:49:52;8.70;99.90
8595;DHT22;4335;48.860;9.198;2023-02-03T11:52:49;8.80;99.90
8595;DHT22;4335;48.860;9.198;2023-02-03T11:55:31;8.80;99.90
8595;DHT22;4335;48.860;9.198;2023-02-03T11:58:19;8.70;99.90
8595;DHT22;4335;48.860;9.198;2023-02-03T12:00:56;8.80;99.90
8595;DHT22;4335;48.860;9.198;2023-02-03T12:03:53;8.90;99.90
8595;DHT22;4335;48.860;9.198;2023-02-03T12:06:57;9.10;99.90
8595;DHT22;4335;48.860;9.198;2023-02-03T12:09:38;9.10;99.90
8595;DHT22;4335;48.860;9.198;2023-02-03T12:12:43;9.00;99.90
8595;DHT22;4335;48.860;9.198;2023-02-03T12:15:27;8.80;99.90
8595;DHT22;4335;48.860;9.198;2023-02-03T12:18:13;8.80;99.90
8595;DHT22;4335;48.860;9.198;2023-02-03T12:20:54;8.70;99.90
8595;DHT22;4335;48.860;9.198;2023-02-03T12:23:33;8.70;99.90
8595;DHT22;4335;48.860;9.198;2023-02-03T12:26:15;8.70;99.90
8595;DHT22;4335;48.860;9.198;2023-02-03T12:28:52;8.70;99.90
8595;DHT22;4335;48.860;9.198;2023-02-03T12:31:29;8.70;99.90
8595;DHT22;4335;48.860;9.198;2023-02-03T12:34:05;8.60;99.90
8595;DHT22;4335;48.860;9.198;2023-02-03T12:36:39;8.50;99.90
8595;DHT22;4335;48.860;9.198;2023-02-03T12:39:16;8.50;99.90
8595;DHT22;4335;48.860;9.198;2023-02-03T12:41:49;8.50;99.90
8595;DHT22;4335;48.860;9.198;2023-02-03T12:44:25;8.60;99.90
8595;DHT22;4335;48.860;9.198;2023-02-03T12:46:56;8.50;99.90
8595;DHT22;4335;48.860;9.198;2023-02-03T12:49:32;8.40;99.90
8595;DHT22;4335;48.860;9.198;2023-02-03T12:52:02;8.40;99.90
8595;DHT22;4335;48.860;9.198;2023-02-03T12:54:39;8.40;99.90
8595;DHT22;4335;48.860;9.198;2023-02-03T12:57:24;8.40;99.90
8595;DHT22;4335;48.860;9.198;2023-02-03T13:00:12;8.30;99.90
8595;DHT22;4335;48.860;9.198;2023-02-03T13:02:51;8.30;99.90
8595;DHT22;4335;48.860;9.198;2023-02-03T13:05:27;8.40;99.90
8595;DHT22;4335;48.860;9.198;2023-02-03T13:08:00;8.40;99.90
8595;DHT22;4335;48.860;9.198;2023-02-03T13:10:34;8.40;99.90
8595;DHT22;4335;48.860;9.198;2023-02-03T13:13:03;8.40;99.90
8595;DHT22;4335;48.860;9.198;2023-02-03T13:15:39;8.40;99.90
8595;DHT22;4335;48.860;9.198;2023-02-03T13:18:20;8.40;99.90
8595;DHT22;4335;48.860;9.198;2023-02-03T13:20:51;8.40;99.90
8595;DHT22;4335;48.860;9.198;2023-02-03T13:23:18;8.40;99.90
8595;DHT22;4335;48.860;9.198;2023-02-03T13:26:00;8.40;99.90
8595;DHT22;4335;48.860;9.198;2023-02-03T13:28:42;8.40;99.90
8595;DHT22;4335;48.860;9.198;2023-02-03T13:31:27;8.40;99.90
8595;DHT22;4335;48.860;9.198;2023-02-03T13:34:14;8.50;99.90
8595;DHT22;4335;48.860;9.198;2023-02-03T13:39:59;8.40;99.90
8595;DHT22;4335;48.860;9.198;2023-02-03T13:42:32;8.40;99.90
8595;DHT22;4335;48.860;9.198;2023-02-03T13:45:14;8.30;99.90
8595;DHT22;4335;48.860;9.198;2023-02-03T13:47:46;8.40;99.90
8595;DHT22;4335;48.860;9.198;2023-02-03T13:50:21;8.30;99.90
8595;DHT22;4335;48.860;9.198;2023-02-03T13:52:57;8.40;99.90
8595;DHT22;4335;48.860;9.198;2023-02-03T13:55:29;8.40;99.90
8595;DHT22;4335;48.860;9.198;2023-02-03T13:57:56;8.40;99.90
8595;DHT22;4335;48.860;9.198;2023-02-03T14:03:45;8.40;99.90
8595;DHT22;4335;48.860;9.198;2023-02-03T14:06:54;8.40;99.90
8595;DHT22;4335;48.860;9.198;2023-02-03T14:15:26;8.30;99.90
8595;DHT22;4335;48.860;9.198;2023-02-03T14:23:51;8.40;99.90
8595;DHT22;4335;48.860;9.198;2023-02-03T14:26:36;8.30;99.90
8595;DHT22;4335;48.860;9.198;2023-02-03T14:29:09;8.30;99.90
8595;DHT22;4335;48.860;9.198;2023-02-03T14:31:53;8.30;99.90
8595;DHT22;4335;48.860;9.198;2023-02-03T14:34:34;8.30;99.90
8595;DHT22;4335;48.860;9.198;2023-02-03T14:37:27;8.30;99.90
8595;DHT22;4335;48.860;9.198;2023-02-03T14:40:30;8.30;99.90
8595;DHT22;4335;48.860;9.198;2023-02-03T14:52:22;8.30;99.90
8595;DHT22;4335;48.860;9.198;2023-02-03T14:55:21;8.20;99.90
8595;DHT22;4335;48.860;9.198;2023-02-03T14:57:53;8.20;99.90
8595;DHT22;4335;48.860;9.198;2023-02-03T15:00:29;8.20;99.90
8595;DHT22;4335;48.860;9.198;2023-02-03T15:03:16;8.20;99.90
8595;DHT22;4335;48.860;9.198;2023-02-03T15:05:49;8.20;99.90
8595;DHT22;4335;48.860;9.198;2023-02-03T15:08:42;8.20;99.90
8595;DHT22;4335;48.860;9.198;2023-02-03T15:11:28;8.20;99.90
8595;DHT22;4335;48.860;9.198;2023-02-03T15:14:03;8.20;99.90
8595;DHT22;4335;48.860;9.198;2023-02-03T15:16:43;8.20;99.90
8595;DHT22;4335;48.860;9.198;2023-02-03T15:19:17;8.20;99.90
8595;DHT22;4335;48.860;9.198;2023-02-03T15:21:44;8.20;99.90
8595;DHT22;4335;48.860;9.198;2023-02-03T15:24:14;8.20;99.90
8595;DHT22;4335;48.860;9.198;2023-02-03T15:26:48;8.20;99.90
8595;DHT22;4335;48.860;9.198;2023-02-03T15:29:20;8.20;99.90
8595;DHT22;4335;48.860;9.198;2023-02-03T15:31:48;8.20;99.90
8595;DHT22;4335;48.860;9.198;2023-02-03T15:34:22;8.10;99.90
8595;DHT22;4335;48.860;9.198;2023-02-03T15:36:54;8.10;99.90
8595;DHT22;4335;48.860;9.198;2023-02-03T15:39:44;8.10;99.90
8595;DHT22;4335;48.860;9.198;2023-02-03T15:42:21;8.20;99.90
8595;DHT22;4335;48.860;9.198;2023-02-03T15:44:55;8.20;99.90
8595;DHT22;4335;48.860;9.198;2023-02-03T15:47:27;8.10;99.90
8595;DHT22;4335;48.860;9.198;2023-02-03T15:50:21;8.10;99.90
8595;DHT22;4335;48.860;9.198;2023-02-03T15:52:51;8.10;99.90
8595;DHT22;4335;48.860;9.198;2023-02-03T15:55:29;8.10;99.90
8595;DHT22;4335;48.860;9.198;2023-02-03T15:58:05;8.10;99.90
8595;DHT22;4335;48.860;9.198;2023-02-03T16:00:35;8.10;99.90
8595;DHT22;4335;48.860;9.198;2023-02-03T16:03:05;8.20;99.90
8595;DHT22;4335;48.860;9.198;2023-02-03T16:05:39;8.10;99.90
8595;DHT22;4335;48.860;9.198;2023-02-03T16:08:35;8.10;99.90
8595;DHT22;4335;48.860;9.198;2023-02-03T16:11:23;8.10;99.90
8595;DHT22;4335;48.860;9.198;2023-02-03T16:13:54;8.00;99.90
8595;DHT22;4335;48.860;9.198;2023-02-03T16:16:23;8.00;99.90
8595;DHT22;4335;48.860;9.198;2023-02-03T16:18:53;7.90;99.90
8595;DHT22;4335;48.860;9.198;2023-02-03T16:21:26;7.90;99.90
8595;DHT22;4335;48.860;9.198;2023-02-03T16:23:57;7.80;99.90
8595;DHT22;4335;48.860;9.198;2023-02-03T16:26:25;7.80;99.90
8595;DHT22;4335;48.860;9.198;2023-02-03T16:29:12;7.80;99.90
8595;DHT22;4335;48.860;9.198;2023-02-03T16:31:57;7.80;99.90
8595;DHT22;4335;48.860;9.198;2023-02-03T16:34:42;7.80;99.90
8595;DHT22;4335;48.860;9.198;2023-02-03T16:37:28;7.70;99.90
8595;DHT22;4335;48.860;9.198;2023-02-03T16:40:19;7.70;99.90
8595;DHT22;4335;48.860;9.198;2023-02-03T16:43:07;7.60;99.90
8595;DHT22;4335;48.860;9.198;2023-02-03T16:45:55;7.70;99.90
8595;DHT22;4335;48.860;9.198;2023-02-03T16:48:43;7.60;99.90
8595;DHT22;4335;48.860;9.198;2023-02-03T16:51:38;7.60;99.90
8595;DHT22;4335;48.860;9.198;2023-02-03T16:54:05;7.70;99.90
8595;DHT22;4335;48.860;9.198;2023-02-03T16:56:32;7.70;99.90
8595;DHT22;4335;48.860;9.198;2023-02-03T16:59:03;7.70;99.90
8595;DHT22;4335;48.860;9.198;2023-02-03T17:01:30;7.70;99.90
8595;DHT22;4335;48.860;9.198;2023-02-03T17:03:59;7.60;99.90
8595;DHT22;4335;48.860;9.198;2023-02-03T17:06:26;7.60;99.90
8595;DHT22;4335;48.860;9.198;2023-02-03T17:08:55;7.60;99.90
8595;DHT22;4335;48.860;9.198;2023-02-03T17:11:22;7.60;99.90
8595;DHT22;4335;48.860;9.198;2023-02-03T17:13:49;7.60;99.90
8595;DHT22;4335;48.860;9.198;2023-02-03T17:16:18;7.60;99.90
8595;DHT22;4335;48.860;9.198;2023-02-03T17:18:52;7.70;99.90
8595;DHT22;4335;48.860;9.198;2023-02-03T17:21:24;7.70;99.90
8595;DHT22;4335;48.860;9.198;2023-02-03T17:23:51;7.60;99.90